Bitte die für das Benutzerkonto hinterlegte E-Mail-Adresse eingeben. Der Benutzername wird dann an diese E-Mail-Adresse geschickt.

WebCam

  
Kamera Halle
Kamera Vorfeld
Wetter EDDS

METAR

EDDS 180150Z VRB02KT 9999 FEW032 SCT043 12/11 Q1014 =
EDDS 172300Z 1800/1824 VRB03KT 9999 SCT035 BECMG 1809/1811 21007KT TEMPO 1810/1816 23015G30KT 3000 SHRA SCT010 BKN015CB BECMG 1816/1818 VRB03KT


TAF

EDDS 172300Z 1800/1824 VRB03KT 9999 SCT035 BECMG 1809/1811 21007KT TEMPO 1810/1816 23015G30KT 3000 SHRA SCT010 BKN015CB BECMG 1816/1818 VRB03KT =


SR/SS

05:45 / 16:27 UTC
(EDSO 18-10-2019)